Time;durP1;ratioP1;P1;durP2;ratioP2;P2;SDS_P1;SDS_P2;PMS_P1;PMS_P2;Temp;Humidity;BMP_temperature;BMP_pressure;BME280_temperature;BME280_humidity;BME280_pressure;Samples;Min_cycle;Max_cycle;Signal;HPM_P1;HPM_P2
2023/09/24 00:00:10;;;;;;;11.48;3.20;;;;;;;10.76;100.00;102105.22;5034495;28;20072;-70
2023/09/24 00:02:36;;;;;;;8.55;4.72;;;;;;;10.59;100.00;102110.06;5050223;28;20419;-71
2023/09/24 00:05:01;;;;;;;11.00;4.63;;;;;;;10.57;100.00;102115.69;5052155;28;20052;-70
2023/09/24 00:07:27;;;;;;;5.10;3.13;;;;;;;10.75;100.00;102120.63;5034021;28;20033;-70
2023/09/24 00:09:52;;;;;;;7.22;4.72;;;;;;;10.50;100.00;102109.38;5051943;28;20468;-72
2023/09/24 00:12:17;;;;;;;8.75;5.03;;;;;;;10.45;100.00;102117.25;5052205;28;20035;-71
2023/09/24 00:14:42;;;;;;;10.52;4.65;;;;;;;10.48;100.00;102118.69;5063182;28;20089;-71
2023/09/24 00:17:08;;;;;;;10.93;5.10;;;;;;;10.37;100.00;102126.31;5072192;28;20028;-71
2023/09/24 00:19:34;;;;;;;5.97;3.55;;;;;;;10.66;100.00;102132.63;5072699;28;20033;-71
2023/09/24 00:22:00;;;;;;;6.50;3.65;;;;;;;10.70;100.00;102125.78;5072174;28;20029;-70
2023/09/24 00:24:26;;;;;;;11.30;4.97;;;;;;;10.58;100.00;102132.75;5052057;28;20029;-70
2023/09/24 00:26:51;;;;;;;11.07;5.10;;;;;;;10.50;100.00;102127.47;5052119;28;20082;-71
2023/09/24 00:29:16;;;;;;;4.53;3.60;;;;;;;10.69;100.00;102137.66;5034399;28;20456;-71
2023/09/24 00:31:42;;;;;;;8.55;5.18;;;;;;;10.52;100.00;102130.81;5052285;28;20456;-71
2023/09/24 00:34:08;;;;;;;10.23;5.38;;;;;;;10.52;100.00;102133.53;5051685;28;20029;-71
2023/09/24 00:36:33;;;;;;;10.15;5.25;;;;;;;10.50;100.00;102135.59;5054574;28;20487;-70
2023/09/24 00:39:00;;;;;;;11.13;5.45;;;;;;;10.46;100.00;102141.41;5055483;28;20032;-71
2023/09/24 00:41:26;;;;;;;8.02;4.10;;;;;;;10.66;100.00;102148.03;5038318;28;20060;-71
2023/09/24 00:43:52;;;;;;;11.70;5.43;;;;;;;10.46;100.00;102146.81;5056056;28;20067;-71
2023/09/24 00:46:18;;;;;;;9.65;5.45;;;;;;;10.45;100.00;102144.31;5038301;28;20048;-71
2023/09/24 00:48:44;;;;;;;14.85;6.18;;;;;;;10.41;100.00;102140.28;5055916;28;20017;-70
2023/09/24 00:51:16;;;;;;;7.95;4.10;;;;;;;10.60;100.00;102149.66;5055870;28;20021;-71
2023/09/24 00:53:42;;;;;;;8.40;5.47;;;;;;;10.35;100.00;102152.72;5054897;28;20083;-69
2023/09/24 00:56:09;;;;;;;9.07;4.80;;;;;;;10.56;100.00;102154.59;5037753;28;20464;-70
2023/09/24 00:58:35;;;;;;;10.73;5.53;;;;;;;10.34;100.00;102156.47;5055577;28;20031;-71
2023/09/24 01:01:03;;;;;;;12.95;5.55;;;;;;;10.27;100.00;102153.63;5053442;28;20499;-70
2023/09/24 01:03:29;;;;;;;7.13;4.47;;;;;;;10.49;100.00;102150.16;5055945;28;20092;-71
2023/09/24 01:05:55;;;;;;;8.52;5.40;;;;;;;10.31;100.00;102143.28;5055628;28;20052;-71
2023/09/24 01:08:23;;;;;;;12.70;5.75;;;;;;;10.33;100.00;102141.25;5055248;28;20055;-71
2023/09/24 01:10:49;;;;;;;9.50;5.80;;;;;;;10.31;100.00;102132.47;5055732;28;20476;-70
2023/09/24 01:13:16;;;;;;;7.38;4.53;;;;;;;10.47;100.00;102134.09;5055169;28;20024;-70
2023/09/24 01:15:44;;;;;;;10.38;5.88;;;;;;;10.25;100.00;102141.31;5055527;28;20461;-71
2023/09/24 01:18:10;;;;;;;10.35;5.80;;;;;;;10.27;100.00;102144.69;5055426;28;20384;-71
2023/09/24 01:20:36;;;;;;;4.85;4.10;;;;;;;10.45;100.00;102147.00;5060126;28;20463;-71
2023/09/24 01:23:04;;;;;;;8.00;4.50;;;;;;;10.46;100.00;102146.81;5058358;28;20033;-71
2023/09/24 01:25:36;;;;;;;6.78;4.25;;;;;;;10.49;100.00;102147.44;5055527;28;20392;-71
2023/09/24 01:28:03;;;;;;;7.32;4.22;;;;;;;10.49;100.00;102147.44;5055154;28;20104;-70
2023/09/24 01:30:29;;;;;;;10.82;5.70;;;;;;;10.34;100.00;102150.19;5055123;28;20439;-71
2023/09/24 01:32:54;;;;;;;10.10;5.50;;;;;;;10.38;100.00;102156.91;5055256;28;20021;-70
2023/09/24 01:35:26;;;;;;;7.57;4.78;;;;;;;10.49;100.00;102150.16;5055109;28;20037;-70
2023/09/24 01:37:52;;;;;;;9.27;4.80;;;;;;;10.50;100.00;102149.97;5054561;28;20103;-71
2023/09/24 01:40:20;;;;;;;7.03;4.50;;;;;;;10.49;100.00;102148.28;5054878;28;20083;-71
2023/09/24 01:42:46;;;;;;;7.85;5.45;;;;;;;10.27;100.00;102142.00;5037163;28;20179;-71
2023/09/24 01:45:13;;;;;;;10.45;5.80;;;;;;;10.14;100.00;102139.97;5054547;28;20095;-70
2023/09/24 01:47:38;;;;;;;10.00;4.60;;;;;;;10.38;100.00;102141.50;5053839;28;20108;-70
2023/09/24 01:50:08;;;;;;;10.15;5.60;;;;;;;10.17;100.00;102141.47;5054818;28;20159;-71
2023/09/24 01:52:35;;;;;;;8.43;5.53;;;;;;;10.10;100.00;102139.50;5054966;28;20093;-71
2023/09/24 01:55:01;;;;;;;9.27;5.85;;;;;;;10.10;100.00;102144.09;5055074;28;20039;-70
2023/09/24 01:57:28;;;;;;;7.15;4.07;;;;;;;10.29;100.00;102146.16;5054827;28;20025;-70
2023/09/24 01:59:53;;;;;;;5.88;4.55;;;;;;;10.31;100.00;102139.72;5054858;28;20025;-70
2023/09/24 02:02:18;;;;;;;10.13;4.28;;;;;;;10.31;100.00;102139.72;5051929;28;20092;-71
2023/09/24 02:04:44;;;;;;;9.43;5.57;;;;;;;10.11;100.00;102138.50;5036271;28;20048;-71
2023/09/24 02:07:12;;;;;;;11.35;5.70;;;;;;;10.08;100.00;102141.59;5072833;28;20075;-71
2023/09/24 02:09:37;;;;;;;7.07;4.57;;;;;;;10.24;100.00;102129.69;5056733;28;20110;-71
2023/09/24 02:12:03;;;;;;;10.55;6.18;;;;;;;10.02;100.00;102141.47;5074205;28;20056;-71
2023/09/24 02:14:28;;;;;;;7.18;4.68;;;;;;;10.22;100.00;102139.88;5074563;28;20028;-71
2023/09/24 02:16:53;;;;;;;10.57;6.43;;;;;;;9.96;100.00;102137.66;5056375;28;20064;-70
2023/09/24 02:19:21;;;;;;;13.15;6.20;;;;;;;9.91;100.00;102150.94;5065190;28;20189;-71
2023/09/24 02:21:46;;;;;;;9.57;4.70;;;;;;;10.16;100.00;102150.59;5053580;28;20033;-71
2023/09/24 02:24:11;;;;;;;9.15;6.03;;;;;;;9.96;100.00;102159.28;5054211;28;20032;-71
2023/09/24 02:26:37;;;;;;;7.97;4.80;;;;;;;10.15;100.00;102167.88;5054351;28;20487;-71
2023/09/24 02:29:03;;;;;;;7.50;4.72;;;;;;;10.15;100.00;102165.16;5054062;28;20082;-71
2023/09/24 02:31:30;;;;;;;7.43;5.03;;;;;;;10.14;100.00;102167.00;5053895;28;20025;-71
2023/09/24 02:33:56;;;;;;;7.75;4.85;;;;;;;10.15;100.00;102175.97;5054196;28;20116;-71
2023/09/24 02:36:21;;;;;;;8.75;5.70;;;;;;;9.98;100.00;102167.22;5052993;28;20112;-71
2023/09/24 02:38:46;;;;;;;6.32;4.60;;;;;;;10.11;100.00;102173.66;5056820;28;20029;-71
2023/09/24 02:41:12;;;;;;;6.70;5.85;;;;;;;9.84;100.00;102167.03;5073759;28;20451;-70
2023/09/24 02:43:37;;;;;;;8.52;5.90;;;;;;;9.79;100.00;102169.47;5074026;28;20030;-70
2023/09/24 02:46:05;;;;;;;11.15;5.85;;;;;;;9.79;100.00;102166.78;5055723;28;20467;-70
2023/09/24 02:48:32;;;;;;;8.23;4.20;;;;;;;9.99;100.00;102174.31;5073572;28;20029;-71
2023/09/24 02:51:05;;;;;;;7.93;4.30;;;;;;;9.98;100.00;102173.50;5058859;28;20033;-71
2023/09/24 02:53:30;;;;;;;8.27;4.40;;;;;;;9.97;100.00;102174.50;5054049;28;20480;-71
2023/09/24 02:55:55;;;;;;;8.00;5.80;;;;;;;9.79;100.00;102163.25;5053684;28;20056;-71
2023/09/24 02:58:21;;;;;;;8.88;5.85;;;;;;;9.66;100.00;102169.31;5053218;28;20028;-70
2023/09/24 03:00:46;;;;;;;12.32;4.50;;;;;;;9.93;100.00;102167.78;5051687;28;20708;-71
2023/09/24 03:03:15;;;;;;;9.20;5.75;;;;;;;9.67;100.00;102163.69;5073742;28;20071;-71
2023/09/24 03:05:41;;;;;;;8.57;4.00;;;;;;;9.89;100.00;102170.03;5058723;28;20072;-71
2023/09/24 03:08:09;;;;;;;6.65;3.88;;;;;;;9.91;100.00;102173.38;5053590;28;20064;-70
2023/09/24 03:10:35;;;;;;;7.35;4.45;;;;;;;9.93;100.00;102173.19;5053469;28;20033;-70
2023/09/24 03:13:04;;;;;;;9.93;5.47;;;;;;;9.63;100.00;102170.53;5053068;28;20040;-72
2023/09/24 03:15:33;;;;;;;9.95;5.50;;;;;;;9.70;100.00;102176.84;5053352;28;20040;-71
2023/09/24 03:17:59;;;;;;;5.88;4.05;;;;;;;9.86;100.00;102185.81;5053325;28;20037;-70
2023/09/24 03:20:26;;;;;;;6.50;4.15;;;;;;;9.86;100.00;102178.53;5052514;28;20037;-71
2023/09/24 03:22:54;;;;;;;8.45;4.97;;;;;;;9.65;100.00;102190.09;5053241;28;20507;-72
2023/09/24 03:25:24;;;;;;;8.00;5.43;;;;;;;9.60;100.00;102180.84;5053314;28;20063;-71
2023/09/24 03:27:51;;;;;;;9.85;4.57;;;;;;;9.80;100.00;102187.38;5035265;28;20385;-71
2023/09/24 03:30:17;;;;;;;8.75;4.00;;;;;;;9.81;100.00;102185.53;5052127;28;20029;-72
2023/09/24 03:32:44;;;;;;;6.35;3.85;;;;;;;9.81;100.00;102190.94;5053019;28;20036;-72
2023/09/24 03:35:10;;;;;;;8.00;5.88;;;;;;;9.53;100.00;102188.88;5052571;28;20503;-71
2023/09/24 03:37:40;;;;;;;7.70;4.95;;;;;;;9.42;100.00;102200.13;5052926;28;20017;-72
2023/09/24 03:40:18;;;;;;;7.28;3.97;;;;;;;9.70;100.00;102201.16;5052642;28;20505;-71
2023/09/24 03:42:44;;;;;;;13.80;6.20;;;;;;;9.42;100.00;102200.13;5046970;28;20093;-70
2023/09/24 03:45:14;;;;;;;7.45;4.63;;;;;;;9.67;100.00;102206.94;5066488;28;20036;-71
2023/09/24 03:47:40;;;;;;;5.53;4.15;;;;;;;9.66;100.00;102208.00;5052926;28;20040;-71
2023/09/24 03:50:09;;;;;;;9.88;5.53;;;;;;;9.46;100.00;102206.84;5052591;28;20033;-71
2023/09/24 03:52:37;;;;;;;5.47;3.85;;;;;;;9.63;100.00;102202.09;5052820;28;20071;-71
2023/09/24 03:55:02;;;;;;;7.47;4.20;;;;;;;9.67;100.00;102204.25;5052801;28;20483;-72
2023/09/24 03:57:28;;;;;;;4.95;3.47;;;;;;;9.67;100.00;102201.53;5052427;28;20025;-71
2023/09/24 03:59:55;;;;;;;8.82;3.30;;;;;;;9.67;100.00;102203.41;5052131;28;20112;-72
2023/09/24 04:02:21;;;;;;;7.97;4.78;;;;;;;9.35;100.00;102200.03;5059797;28;20036;-71
2023/09/24 04:04:46;;;;;;;7.35;3.50;;;;;;;9.60;100.00;102207.88;5072358;28;20117;-72
2023/09/24 04:07:12;;;;;;;6.03;3.67;;;;;;;9.62;100.00;102217.50;5072149;28;20467;-71
2023/09/24 04:09:37;;;;;;;6.20;3.65;;;;;;;9.61;100.00;102210.41;5072534;28;20028;-71
2023/09/24 04:12:04;;;;;;;8.52;3.88;;;;;;;9.60;100.00;102211.41;5071584;28;20036;-71
2023/09/24 04:14:30;;;;;;;5.43;3.45;;;;;;;9.60;100.00;102216.81;5049658;28;20418;-72
2023/09/24 04:16:56;;;;;;;7.15;4.90;;;;;;;9.43;100.00;102213.44;5052343;28;20025;-70
2023/09/24 04:19:21;;;;;;;9.38;4.68;;;;;;;9.59;100.00;102217.88;5052126;28;20029;-71
2023/09/24 04:21:47;;;;;;;8.45;4.57;;;;;;;9.31;100.00;102213.03;5034481;28;20526;-71
2023/09/24 04:24:14;;;;;;;9.10;4.78;;;;;;;9.33;100.00;102219.13;5053873;28;20439;-71
2023/09/24 04:26:40;;;;;;;8.00;4.57;;;;;;;9.36;100.00;102224.16;5056302;28;20072;-70
2023/09/24 04:29:05;;;;;;;6.03;3.00;;;;;;;9.54;100.00;102223.81;5052274;28;20100;-71
2023/09/24 04:31:30;;;;;;;5.68;3.40;;;;;;;9.58;100.00;102224.28;5052366;28;20055;-70
2023/09/24 04:33:56;;;;;;;5.32;3.38;;;;;;;9.58;100.00;102229.69;5052289;28;20465;-73
2023/09/24 04:36:21;;;;;;;7.53;3.58;;;;;;;9.58;100.00;102226.97;5051880;28;20025;-71
2023/09/24 04:38:47;;;;;;;6.18;3.30;;;;;;;9.60;100.00;102224.94;5051253;28;20538;-71
2023/09/24 04:41:15;;;;;;;6.10;3.30;;;;;;;9.61;100.00;102226.63;5051857;28;20064;-71
2023/09/24 04:43:41;;;;;;;10.90;3.50;;;;;;;9.61;100.00;102225.78;5052152;28;20040;-71
2023/09/24 04:46:07;;;;;;;6.07;3.30;;;;;;;9.61;100.00;102228.50;5070277;28;20537;-70
2023/09/24 04:48:33;;;;;;;8.73;5.10;;;;;;;9.37;100.00;102225.81;5071818;28;20138;-70
2023/09/24 04:50:58;;;;;;;7.90;3.40;;;;;;;9.55;100.00;102227.34;5072165;28;20029;-71
2023/09/24 04:53:24;;;;;;;7.20;3.38;;;;;;;9.56;100.00;102226.34;5064378;28;20025;-70
2023/09/24 04:55:49;;;;;;;10.32;3.45;;;;;;;9.55;100.00;102228.19;5051667;28;20532;-71
2023/09/24 04:58:14;;;;;;;4.22;2.97;;;;;;;9.56;100.00;102229.88;5051752;28;20033;-70
2023/09/24 05:00:40;;;;;;;4.25;3.00;;;;;;;9.56;100.00;102226.34;5031684;28;20185;-70
2023/09/24 05:03:05;;;;;;;8.63;3.85;;;;;;;9.55;100.00;102224.66;5051986;28;20548;-71
2023/09/24 05:05:31;;;;;;;5.43;3.15;;;;;;;9.54;100.00;102229.22;5065618;28;20068;-70
2023/09/24 05:07:56;;;;;;;8.15;3.20;;;;;;;9.53;100.00;102226.72;5066285;28;20029;-72
2023/09/24 05:10:21;;;;;;;5.30;3.30;;;;;;;9.53;100.00;102234.81;5051394;28;20048;-72
2023/09/24 05:12:47;;;;;;;6.93;3.50;;;;;;;9.53;100.00;102232.13;5051822;28;20056;-71
2023/09/24 05:15:12;;;;;;;7.00;3.50;;;;;;;9.52;100.00;102239.38;5051648;28;20033;-71
2023/09/24 05:17:38;;;;;;;4.35;2.95;;;;;;;9.53;100.00;102234.81;5051716;28;20397;-72
2023/09/24 05:20:04;;;;;;;6.88;3.28;;;;;;;9.53;100.00;102240.22;5051450;28;20044;-70
2023/09/24 05:22:29;;;;;;;3.72;2.70;;;;;;;9.51;100.00;102235.00;5052734;28;20987;-70
2023/09/24 05:24:55;;;;;;;4.95;3.35;;;;;;;9.50;100.00;102243.28;5065022;28;20032;-71
2023/09/24 05:27:20;;;;;;;5.03;3.50;;;;;;;9.51;100.00;102250.34;5074891;28;20434;-71
2023/09/24 05:29:46;;;;;;;8.90;4.43;;;;;;;9.21;100.00;102251.13;5075143;28;20078;-71
2023/09/24 05:32:12;;;;;;;8.88;3.47;;;;;;;9.44;100.00;102252.13;5074888;28;20078;-71
2023/09/24 05:34:37;;;;;;;5.00;3.10;;;;;;;9.45;100.00;102253.78;5075378;28;20099;-71
2023/09/24 05:37:03;;;;;;;6.15;2.83;;;;;;;9.47;100.00;102257.16;5072961;28;20114;-71
2023/09/24 05:39:28;;;;;;;4.40;2.92;;;;;;;9.48;100.00;102264.22;5055061;28;20171;-71
2023/09/24 05:41:53;;;;;;;5.22;2.90;;;;;;;9.49;100.00;102271.31;5055277;28;20133;-71
2023/09/24 05:44:20;;;;;;;19.27;4.20;;;;;;;9.47;100.00;102278.78;5060732;28;20029;-70
2023/09/24 05:46:45;;;;;;;5.07;3.05;;;;;;;9.47;100.00;102279.63;5075153;28;20036;-71
2023/09/24 05:49:11;;;;;;;7.70;3.28;;;;;;;9.48;100.00;102285.84;5075055;28;20104;-71
2023/09/24 05:51:36;;;;;;;5.70;3.00;;;;;;;9.49;100.00;102274.03;5074120;28;20108;-70
2023/09/24 05:54:02;;;;;;;7.88;4.15;;;;;;;9.31;100.00;102287.84;5074248;28;20128;-70
2023/09/24 05:56:28;;;;;;;6.93;4.18;;;;;;;9.23;100.00;102289.59;5074632;28;20467;-70
2023/09/24 05:58:56;;;;;;;6.85;3.03;;;;;;;9.46;100.00;102293.31;5074557;28;20028;-70
2023/09/24 06:01:21;;;;;;;10.70;4.65;;;;;;;9.31;100.00;102285.97;5072539;28;20479;-70
2023/09/24 06:03:47;;;;;;;4.43;2.97;;;;;;;9.50;100.00;102305.44;5073738;28;20032;-71
2023/09/24 06:06:12;;;;;;;8.90;3.50;;;;;;;9.53;100.00;102299.66;5074748;28;20487;-71
2023/09/24 06:08:38;;;;;;;5.40;3.10;;;;;;;9.55;100.00;102293.03;5054812;28;20041;-70
2023/09/24 06:11:04;;;;;;;7.72;4.57;;;;;;;9.42;100.00;102289.28;5054591;28;20035;-70
2023/09/24 06:13:30;;;;;;;6.28;3.03;;;;;;;9.58;100.00;102286.44;5054668;28;20117;-70
2023/09/24 06:15:59;;;;;;;9.52;3.00;;;;;;;9.60;100.00;102292.50;5054213;28;20116;-71
2023/09/24 06:18:25;;;;;;;8.05;3.53;;;;;;;9.63;100.00;102291.28;5036352;28;20033;-70
2023/09/24 06:20:50;;;;;;;8.80;3.10;;;;;;;9.66;100.00;102296.34;5054198;28;20373;-70
2023/09/24 06:23:16;;;;;;;8.30;4.57;;;;;;;9.45;100.00;102291.63;5053363;28;20064;-70
2023/09/24 06:25:45;;;;;;;5.75;3.22;;;;;;;9.66;100.00;102296.34;5053647;28;20083;-70
2023/09/24 06:28:10;;;;;;;7.90;3.55;;;;;;;9.69;100.00;102299.53;5054294;28;20116;-71
2023/09/24 06:30:38;;;;;;;9.75;4.43;;;;;;;9.49;100.00;102298.34;5054006;28;20112;-71
2023/09/24 06:33:05;;;;;;;6.22;3.33;;;;;;;9.70;100.00;102298.47;5036058;28;20033;-71
2023/09/24 06:35:39;;;;;;;7.03;2.80;;;;;;;9.76;100.00;102296.91;5053546;28;20060;-71
2023/09/24 06:38:05;;;;;;;7.00;4.32;;;;;;;9.58;100.00;102308.88;5054006;28;20082;-71
2023/09/24 06:40:30;;;;;;;8.73;3.33;;;;;;;9.79;100.00;102303.81;5053338;28;20064;-71
2023/09/24 06:42:55;;;;;;;7.88;3.00;;;;;;;9.82;100.00;102303.47;5053283;28;20382;-70
2023/09/24 06:45:21;;;;;;;6.18;3.00;;;;;;;9.85;100.00;102308.50;5066529;28;20051;-71
2023/09/24 06:47:47;;;;;;;5.18;2.95;;;;;;;9.89;100.00;102307.09;5073873;28;20024;-71
2023/09/24 06:50:12;;;;;;;9.50;4.20;;;;;;;9.75;100.00;102306.91;5073950;28;20031;-71
2023/09/24 06:52:39;;;;;;;5.82;3.03;;;;;;;9.94;100.00;102312.78;5073679;28;20029;-71
2023/09/24 06:55:11;;;;;;;7.50;2.80;;;;;;;9.98;100.00;102311.41;5073800;28;20491;-71
2023/09/24 06:57:36;;;;;;;;;;;;;;;10.06;100.00;102324.81;5035973;28;20388;-71
2023/09/24 07:00:08;;;;;;;9.30;3.40;;;;;;;10.08;100.00;102317.38;5053784;28;20007;-71
2023/09/24 07:02:34;;;;;;;7.20;2.90;;;;;;;10.13;100.00;102318.66;5051073;28;20036;-70
2023/09/24 07:04:59;;;;;;;4.10;2.85;;;;;;;10.16;100.00;102318.31;5052876;28;20049;-71
2023/09/24 07:07:25;;;;;;;5.95;2.70;;;;;;;10.20;100.00;102322.31;5053473;28;20029;-70
2023/09/24 07:09:50;;;;;;;8.32;2.80;;;;;;;10.24;100.00;102319.06;5053611;28;20056;-70
2023/09/24 07:12:16;;;;;;;7.95;2.90;;;;;;;10.29;100.00;102319.31;5053018;28;20108;-71
2023/09/24 07:14:42;;;;;;;6.90;3.10;;;;;;;10.35;100.00;102319.66;5053339;28;20166;-70
2023/09/24 07:17:07;;;;;;;7.57;3.40;;;;;;;10.39;100.00;102319.09;5052082;28;20035;-70
2023/09/24 07:19:33;;;;;;;9.85;4.43;;;;;;;10.36;100.00;102321.34;5053068;28;20025;-71
2023/09/24 07:21:58;;;;;;;4.40;2.50;;;;;;;10.48;100.00;102318.97;5052994;28;20116;-71
2023/09/24 07:24:24;;;;;;;4.93;2.78;;;;;;;10.53;100.00;102324.69;5059339;28;20032;-70
2023/09/24 07:26:50;;;;;;;9.27;3.00;;;;;;;10.58;100.00;102325.78;5073129;28;20036;-71
2023/09/24 07:29:15;;;;;;;6.90;2.70;;;;;;;10.63;100.00;102327.94;5073416;28;20085;-70
2023/09/24 07:31:41;;;;;;;10.18;3.45;;;;;;;10.69;100.00;102335.31;5068529;28;20052;-70
2023/09/24 07:34:07;;;;;;;7.30;2.95;;;;;;;10.77;100.00;102340.59;5052459;28;20029;-71
2023/09/24 07:36:33;;;;;;;7.88;4.43;;;;;;;10.76;100.00;102344.31;5052744;28;20120;-71
2023/09/24 07:38:58;;;;;;;9.02;4.85;;;;;;;10.87;100.00;102345.72;5035065;28;20445;-70
2023/09/24 07:41:24;;;;;;;11.85;5.13;;;;;;;10.94;100.00;102343.91;5034778;28;20033;-70
2023/09/24 07:43:49;;;;;;;7.18;2.78;;;;;;;11.03;100.00;102344.63;5052566;28;20066;-70
2023/09/24 07:46:15;;;;;;;8.95;3.33;;;;;;;11.09;100.00;102345.75;5052010;28;20366;-71
2023/09/24 07:48:44;;;;;;;7.63;2.95;;;;;;;11.14;100.00;102349.56;5051778;28;20158;-71
2023/09/24 07:51:11;;;;;;;7.32;2.97;;;;;;;11.20;100.00;102352.53;5052127;28;20357;-70
2023/09/24 07:53:36;;;;;;;8.70;3.30;;;;;;;11.26;100.00;102349.03;5052469;28;20033;-71
2023/09/24 07:56:07;;;;;;;8.68;2.88;;;;;;;11.34;100.00;102357.06;5052622;28;20025;-71
2023/09/24 07:58:33;;;;;;;6.68;3.20;;;;;;;11.38;100.00;102363.75;5052441;28;20032;-72
2023/09/24 08:01:06;;;;;;;11.75;5.25;;;;;;;11.41;100.00;102349.00;5050401;28;20065;-71
2023/09/24 08:03:32;;;;;;;9.15;4.93;;;;;;;11.54;100.00;102357.25;5053592;28;20118;-70
2023/09/24 08:05:58;;;;;;;10.88;3.15;;;;;;;11.59;100.00;102357.50;5066533;28;20138;-71
2023/09/24 08:08:28;;;;;;;12.65;5.00;;;;;;;11.63;100.00;102349.81;5060968;28;20036;-70
2023/09/24 08:10:53;;;;;;;6.70;2.60;;;;;;;11.70;100.00;102350.72;5072549;28;20029;-70
2023/09/24 08:13:19;;;;;;;8.52;3.30;;;;;;;11.77;100.00;102358.91;5072529;28;20534;-72
2023/09/24 08:15:46;;;;;;;9.98;4.22;;;;;;;11.81;100.00;102352.91;5071690;28;20039;-70
2023/09/24 08:18:12;;;;;;;8.48;3.80;;;;;;;11.97;100.00;102362.66;5072551;28;20035;-72
2023/09/24 08:20:39;;;;;;;8.07;3.88;;;;;;;12.04;100.00;102357.28;5072038;28;20034;-71
2023/09/24 08:23:04;;;;;;;8.18;3.50;;;;;;;12.07;100.00;102356.88;5063042;28;20075;-69
2023/09/24 08:25:30;;;;;;;8.65;3.40;;;;;;;12.13;100.00;102366.94;5068457;28;20032;-70
2023/09/24 08:27:56;;;;;;;7.20;3.15;;;;;;;12.22;100.00;102363.03;5071569;28;20594;-69
2023/09/24 08:30:21;;;;;;;9.23;3.50;;;;;;;12.29;100.00;102354.09;5071520;28;20025;-69
2023/09/24 08:32:46;;;;;;;5.95;2.70;;;;;;;12.28;100.00;102363.28;5071563;28;20097;-69
2023/09/24 08:35:12;;;;;;;4.50;1.58;;;;;;;12.36;100.00;102360.41;5053405;28;20101;-70
2023/09/24 08:37:37;;;;;;;8.65;3.05;;;;;;;12.49;100.00;102360.47;5063539;28;20021;-70
2023/09/24 08:40:03;;;;;;;5.32;2.58;;;;;;;12.54;100.00;102366.13;5050847;28;20032;-68
2023/09/24 08:42:31;;;;;;;5.22;1.60;;;;;;;12.58;100.00;102375.56;5050992;28;20021;-70
2023/09/24 08:45:14;;;;;;;7.95;2.80;;;;;;;12.67;100.00;102376.22;5066471;28;20037;-69
2023/09/24 08:47:44;;;;;;;5.50;2.40;;;;;;;12.76;100.00;102371.47;5053711;28;20441;-69
2023/09/24 08:50:09;;;;;;;4.60;1.48;;;;;;;12.81;100.00;102374.41;5072222;28;20093;-70
2023/09/24 08:52:45;;;;;;;5.45;2.63;;;;;;;12.89;100.00;102374.25;5071866;28;20029;-70
2023/09/24 08:55:13;;;;;;;8.18;2.63;;;;;;;13.05;100.00;102372.22;5052160;28;20484;-69
2023/09/24 08:57:40;;;;;;;5.38;1.90;;;;;;;13.03;100.00;102383.28;5053512;28;20025;-69
2023/09/24 09:00:09;;;;;;;4.70;2.50;;;;;;;13.18;100.00;102365.94;5055870;28;20499;-70
2023/09/24 09:02:35;;;;;;;5.63;2.30;;;;;;;13.28;100.00;102377.28;5053232;28;20028;-69
2023/09/24 09:05:03;;;;;;;8.30;2.15;;;;;;;13.33;100.00;102371.22;5037034;28;20048;-69
2023/09/24 09:07:29;;;;;;;5.95;1.58;;;;;;;13.35;100.00;102371.91;5055258;28;20040;-70
2023/09/24 09:09:56;;;;;;;6.75;2.33;;;;;;;13.45;100.00;102370.44;5061639;28;20135;-69
2023/09/24 09:12:24;;;;;;;5.85;2.35;;;;;;;13.53;100.00;102374.84;5075387;28;20581;-70
2023/09/24 09:14:50;;;;;;;6.22;2.10;;;;;;;13.62;100.00;102373.59;5084072;28;20028;-70
2023/09/24 09:17:15;;;;;;;3.40;1.30;;;;;;;13.63;100.00;102366.28;5065174;28;20029;-72
2023/09/24 09:19:52;;;;;;;3.88;1.60;;;;;;;13.70;100.00;102367.13;5072112;28;20040;-73
2023/09/24 09:22:22;;;;;;;6.43;2.17;;;;;;;13.81;100.00;102362.94;5072018;28;20040;-69
2023/09/24 09:25:00;;;;;;;7.55;2.08;;;;;;;13.93;100.00;102358.53;5046894;28;20028;-70
2023/09/24 09:27:37;;;;;;;7.35;2.22;;;;;;;14.03;100.00;102347.22;5074898;28;20124;-69
2023/09/24 09:30:19;;;;;;;5.15;2.40;;;;;;;14.10;100.00;102344.47;5065041;28;20077;-69
2023/09/24 09:32:47;;;;;;;6.55;2.25;;;;;;;14.20;100.00;102339.44;5095289;28;20734;-70
2023/09/24 09:35:14;;;;;;;7.85;2.13;;;;;;;14.18;100.00;102331.47;5091639;28;20538;-69
2023/09/24 09:37:41;;;;;;;3.80;2.08;;;;;;;14.18;100.00;102325.22;5055160;28;20476;-69
2023/09/24 09:40:08;;;;;;;4.28;1.42;;;;;;;14.27;100.00;102321.22;5057606;28;20029;-69
2023/09/24 09:42:37;;;;;;;3.70;1.60;;;;;;;14.40;100.00;102328.47;5073968;28;20035;-70
2023/09/24 09:45:07;;;;;;;5.57;1.90;;;;;;;14.39;100.00;102331.41;5063685;28;20430;-69
2023/09/24 09:47:57;;;;;;;6.07;2.00;;;;;;;14.48;100.00;102325.53;5074751;28;20040;-69
2023/09/24 09:50:25;;;;;;;4.95;2.00;;;;;;;14.57;100.00;102322.56;5040341;28;20052;-69
2023/09/24 09:52:54;;;;;;;5.20;2.15;;;;;;;14.66;100.00;102327.59;5069109;28;20497;-70
2023/09/24 09:55:20;;;;;;;4.20;1.98;;;;;;;14.70;100.00;102323.41;5078238;28;20086;-70
2023/09/24 09:57:46;;;;;;;4.20;1.80;;;;;;;14.79;100.00;102314.97;5074959;28;20032;-69
2023/09/24 10:00:14;;;;;;;5.10;1.05;;;;;;;14.79;100.00;102323.13;5094819;28;20039;-72
2023/09/24 10:02:42;;;;;;;4.03;1.60;;;;;;;14.83;100.00;102325.19;5068712;28;20098;-74
2023/09/24 10:05:10;;;;;;;3.47;1.58;;;;;;;14.93;100.00;102321.16;5073797;28;20059;-71
2023/09/24 10:07:40;;;;;;;2.95;1.65;;;;;;;15.00;100.00;102314.63;5058410;28;20044;-70
2023/09/24 10:10:30;;;;;;;5.95;1.83;;;;;;;15.08;100.00;102305.34;5081329;28;20024;-70
2023/09/24 10:12:56;;;;;;;3.28;1.60;;;;;;;15.14;100.00;102301.75;5064561;28;20032;-70
2023/09/24 10:15:27;;;;;;;4.90;1.77;;;;;;;15.14;100.00;102307.22;5074521;28;20556;-70
2023/09/24 10:18:19;;;;;;;;;;;;;;;15.19;100.00;102304.66;5067463;28;20025;-70
2023/09/24 10:20:50;;;;;;;3.70;1.05;;;;;;;15.29;100.00;102298.69;5051023;28;19919;-70
2023/09/24 10:23:31;;;;;;;;;;;;;;;15.31;100.00;102299.34;5036891;28;20484;-73
2023/09/24 10:26:00;;;;;;;5.53;1.75;;;;;;;15.44;100.00;102289.38;5054454;28;19916;-72
2023/09/24 10:28:47;;;;;;;4.35;1.70;;;;;;;15.49;100.00;102293.09;5060046;28;20040;-71
2023/09/24 10:31:12;;;;;;;5.30;1.90;;;;;;;15.54;100.00;102286.97;5056146;28;20494;-70
2023/09/24 10:33:56;;;;;;;4.30;1.75;;;;;;;15.65;100.00;102291.69;5062220;28;20071;-71
2023/09/24 10:36:30;;;;;;;3.22;1.80;;;;;;;15.79;100.00;102294.34;5074012;28;20056;-72
2023/09/24 10:39:11;;;;;;;3.83;1.70;;;;;;;15.91;100.00;102296.13;5063195;28;20035;-73
2023/09/24 10:42:08;;;;;;;4.80;1.50;;;;;;;15.91;100.00;102296.13;5056301;28;20032;-72
2023/09/24 10:44:35;;;;;;;2.65;1.48;;;;;;;15.94;100.00;102292.94;5057616;28;20037;-73
2023/09/24 10:47:30;;;;;;;5.30;1.80;;;;;;;16.05;100.00;102296.81;5055513;28;20463;-72
2023/09/24 10:50:03;;;;;;;2.42;1.40;;;;;;;16.04;100.00;102286.94;5094105;28;20071;-71
2023/09/24 10:52:29;;;;;;;3.88;1.70;;;;;;;16.01;100.00;102284.66;5094002;28;20122;-73
2023/09/24 10:54:55;;;;;;;4.78;1.63;;;;;;;16.05;100.00;102285.88;5075715;28;20027;-71
2023/09/24 10:57:28;;;;;;;3.65;1.70;;;;;;;16.15;100.00;102285.34;5080380;28;20380;-70
2023/09/24 10:59:53;;;;;;;3.08;1.75;;;;;;;16.23;100.00;102276.00;5055430;28;20064;-70
2023/09/24 11:02:19;;;;;;;6.22;1.63;;;;;;;16.33;100.00;102283.69;5052239;28;20496;-72
2023/09/24 11:04:44;;;;;;;3.78;1.80;;;;;;;16.35;100.00;102287.84;5035265;28;20469;-72
2023/09/24 11:07:11;;;;;;;2.67;1.58;;;;;;;16.38;97.04;102289.28;5070906;28;20033;-72
2023/09/24 11:09:36;;;;;;;5.40;1.88;;;;;;;16.42;98.25;102291.31;5073224;28;20036;-73
2023/09/24 11:12:08;;;;;;;3.83;1.40;;;;;;;16.45;100.00;102282.66;5073365;28;20024;-75
2023/09/24 11:14:34;;;;;;;4.72;1.70;;;;;;;16.54;100.00;102271.44;5055144;28;20123;-72
2023/09/24 11:16:59;;;;;;;2.50;1.45;;;;;;;16.58;100.00;102278.13;5072798;28;20108;-73
2023/09/24 11:19:44;;;;;;;4.28;1.77;;;;;;;16.65;100.00;102274.22;5054490;28;20136;-71